sensor_id;sensor_type;location;lat;lon;timestamp;P1;durP1;ratioP1;P2;durP2;ratioP2
69410;SDS011;56604;48.652;9.194;2023-12-20T00:01:14;0.80;;;0.80;;
69410;SDS011;56604;48.652;9.194;2023-12-20T00:03:39;1.03;;;1.03;;
69410;SDS011;56604;48.652;9.194;2023-12-20T00:06:05;0.80;;;0.80;;
69410;SDS011;56604;48.652;9.194;2023-12-20T00:08:30;1.00;;;1.00;;
69410;SDS011;56604;48.652;9.194;2023-12-20T00:10:55;0.50;;;0.50;;
69410;SDS011;56604;48.652;9.194;2023-12-20T00:13:21;1.10;;;1.00;;
69410;SDS011;56604;48.652;9.194;2023-12-20T00:15:46;0.97;;;0.97;;
69410;SDS011;56604;48.652;9.194;2023-12-20T00:18:11;0.83;;;0.83;;
69410;SDS011;56604;48.652;9.194;2023-12-20T00:20:37;0.90;;;0.90;;
69410;SDS011;56604;48.652;9.194;2023-12-20T00:23:02;0.90;;;0.90;;
69410;SDS011;56604;48.652;9.194;2023-12-20T00:25:28;5.10;;;1.00;;
69410;SDS011;56604;48.652;9.194;2023-12-20T00:27:53;0.80;;;0.80;;
69410;SDS011;56604;48.652;9.194;2023-12-20T00:30:19;1.00;;;1.00;;
69410;SDS011;56604;48.652;9.194;2023-12-20T00:32:44;0.80;;;0.80;;
69410;SDS011;56604;48.652;9.194;2023-12-20T00:35:18;0.90;;;0.90;;
69410;SDS011;56604;48.652;9.194;2023-12-20T00:37:44;1.20;;;1.20;;
69410;SDS011;56604;48.652;9.194;2023-12-20T00:40:09;0.90;;;0.90;;
69410;SDS011;56604;48.652;9.194;2023-12-20T00:42:35;0.90;;;0.90;;
69410;SDS011;56604;48.652;9.194;2023-12-20T00:45:01;0.80;;;0.80;;
69410;SDS011;56604;48.652;9.194;2023-12-20T00:47:27;0.83;;;0.83;;
69410;SDS011;56604;48.652;9.194;2023-12-20T00:49:53;1.20;;;1.20;;
69410;SDS011;56604;48.652;9.194;2023-12-20T00:52:19;2.83;;;1.20;;
69410;SDS011;56604;48.652;9.194;2023-12-20T00:54:45;1.23;;;1.20;;
69410;SDS011;56604;48.652;9.194;2023-12-20T00:57:11;1.00;;;1.00;;
69410;SDS011;56604;48.652;9.194;2023-12-20T00:59:36;1.20;;;1.20;;
69410;SDS011;56604;48.652;9.194;2023-12-20T01:02:02;0.80;;;0.80;;
69410;SDS011;56604;48.652;9.194;2023-12-20T01:04:28;0.87;;;0.87;;
69410;SDS011;56604;48.652;9.194;2023-12-20T01:06:53;0.90;;;0.90;;
69410;SDS011;56604;48.652;9.194;2023-12-20T01:09:19;1.20;;;0.90;;
69410;SDS011;56604;48.652;9.194;2023-12-20T01:11:45;1.00;;;1.00;;
69410;SDS011;56604;48.652;9.194;2023-12-20T01:14:13;1.00;;;1.00;;
69410;SDS011;56604;48.652;9.194;2023-12-20T01:16:38;0.93;;;0.93;;
69410;SDS011;56604;48.652;9.194;2023-12-20T01:19:03;0.87;;;0.87;;
69410;SDS011;56604;48.652;9.194;2023-12-20T01:21:29;5.43;;;1.17;;
69410;SDS011;56604;48.652;9.194;2023-12-20T01:23:54;1.33;;;0.90;;
69410;SDS011;56604;48.652;9.194;2023-12-20T01:26:19;1.27;;;1.27;;
69410;SDS011;56604;48.652;9.194;2023-12-20T01:28:45;1.33;;;1.10;;
69410;SDS011;56604;48.652;9.194;2023-12-20T01:31:10;1.13;;;0.80;;
69410;SDS011;56604;48.652;9.194;2023-12-20T01:33:35;1.43;;;1.00;;
69410;SDS011;56604;48.652;9.194;2023-12-20T01:36:00;0.97;;;0.97;;
69410;SDS011;56604;48.652;9.194;2023-12-20T01:38:26;0.90;;;0.90;;
69410;SDS011;56604;48.652;9.194;2023-12-20T01:40:51;2.20;;;1.20;;
69410;SDS011;56604;48.652;9.194;2023-12-20T01:43:16;3.30;;;0.93;;
69410;SDS011;56604;48.652;9.194;2023-12-20T01:45:42;0.97;;;0.80;;
69410;SDS011;56604;48.652;9.194;2023-12-20T01:48:08;1.00;;;1.00;;
69410;SDS011;56604;48.652;9.194;2023-12-20T01:50:35;0.70;;;0.70;;
69410;SDS011;56604;48.652;9.194;2023-12-20T01:53:02;0.97;;;0.97;;
69410;SDS011;56604;48.652;9.194;2023-12-20T01:55:29;4.00;;;1.07;;
69410;SDS011;56604;48.652;9.194;2023-12-20T01:57:57;0.80;;;0.80;;
69410;SDS011;56604;48.652;9.194;2023-12-20T02:00:23;1.23;;;1.20;;
69410;SDS011;56604;48.652;9.194;2023-12-20T02:02:51;1.10;;;1.10;;
69410;SDS011;56604;48.652;9.194;2023-12-20T02:05:18;1.27;;;1.00;;
69410;SDS011;56604;48.652;9.194;2023-12-20T02:07:44;0.90;;;0.90;;
69410;SDS011;56604;48.652;9.194;2023-12-20T02:10:09;1.53;;;1.23;;
69410;SDS011;56604;48.652;9.194;2023-12-20T02:12:35;1.00;;;1.00;;
69410;SDS011;56604;48.652;9.194;2023-12-20T02:15:00;1.20;;;1.10;;
69410;SDS011;56604;48.652;9.194;2023-12-20T02:17:27;1.80;;;1.00;;
69410;SDS011;56604;48.652;9.194;2023-12-20T02:19:52;0.80;;;0.80;;
69410;SDS011;56604;48.652;9.194;2023-12-20T02:22:18;1.60;;;1.00;;
69410;SDS011;56604;48.652;9.194;2023-12-20T02:24:43;0.90;;;0.90;;
69410;SDS011;56604;48.652;9.194;2023-12-20T02:27:09;2.50;;;1.00;;
69410;SDS011;56604;48.652;9.194;2023-12-20T02:29:34;1.57;;;1.20;;
69410;SDS011;56604;48.652;9.194;2023-12-20T02:32:00;0.90;;;0.90;;
69410;SDS011;56604;48.652;9.194;2023-12-20T02:34:26;1.00;;;1.00;;
69410;SDS011;56604;48.652;9.194;2023-12-20T02:36:51;1.57;;;1.00;;
69410;SDS011;56604;48.652;9.194;2023-12-20T02:39:17;0.97;;;0.97;;
69410;SDS011;56604;48.652;9.194;2023-12-20T02:41:44;0.70;;;0.70;;
69410;SDS011;56604;48.652;9.194;2023-12-20T02:44:09;1.03;;;0.93;;
69410;SDS011;56604;48.652;9.194;2023-12-20T02:46:34;1.53;;;0.90;;
69410;SDS011;56604;48.652;9.194;2023-12-20T02:49:00;0.70;;;0.70;;
69410;SDS011;56604;48.652;9.194;2023-12-20T02:51:25;0.93;;;0.90;;
69410;SDS011;56604;48.652;9.194;2023-12-20T02:53:50;0.80;;;0.80;;
69410;SDS011;56604;48.652;9.194;2023-12-20T02:56:16;0.70;;;0.70;;
69410;SDS011;56604;48.652;9.194;2023-12-20T02:58:41;0.70;;;0.70;;
69410;SDS011;56604;48.652;9.194;2023-12-20T03:01:07;1.23;;;0.63;;
69410;SDS011;56604;48.652;9.194;2023-12-20T03:03:32;0.87;;;0.87;;
69410;SDS011;56604;48.652;9.194;2023-12-20T03:05:58;1.03;;;0.57;;
69410;SDS011;56604;48.652;9.194;2023-12-20T03:08:23;0.70;;;0.70;;
69410;SDS011;56604;48.652;9.194;2023-12-20T03:10:49;0.60;;;0.60;;
69410;SDS011;56604;48.652;9.194;2023-12-20T03:13:14;0.60;;;0.60;;
69410;SDS011;56604;48.652;9.194;2023-12-20T03:15:40;1.17;;;1.00;;
69410;SDS011;56604;48.652;9.194;2023-12-20T03:18:05;0.70;;;0.70;;
69410;SDS011;56604;48.652;9.194;2023-12-20T03:20:31;0.60;;;0.60;;
69410;SDS011;56604;48.652;9.194;2023-12-20T03:22:59;0.70;;;0.70;;
69410;SDS011;56604;48.652;9.194;2023-12-20T03:25:25;0.80;;;0.80;;
69410;SDS011;56604;48.652;9.194;2023-12-20T03:27:50;0.70;;;0.70;;
69410;SDS011;56604;48.652;9.194;2023-12-20T03:30:15;0.60;;;0.60;;
69410;SDS011;56604;48.652;9.194;2023-12-20T03:32:41;0.60;;;0.60;;
69410;SDS011;56604;48.652;9.194;2023-12-20T03:35:06;1.67;;;0.73;;
69410;SDS011;56604;48.652;9.194;2023-12-20T03:37:31;0.60;;;0.60;;
69410;SDS011;56604;48.652;9.194;2023-12-20T03:39:57;0.70;;;0.70;;
69410;SDS011;56604;48.652;9.194;2023-12-20T03:42:22;0.50;;;0.50;;
69410;SDS011;56604;48.652;9.194;2023-12-20T03:44:48;1.33;;;0.63;;
69410;SDS011;56604;48.652;9.194;2023-12-20T03:47:13;0.83;;;0.80;;
69410;SDS011;56604;48.652;9.194;2023-12-20T03:49:38;0.97;;;0.97;;
69410;SDS011;56604;48.652;9.194;2023-12-20T03:52:04;0.70;;;0.70;;
69410;SDS011;56604;48.652;9.194;2023-12-20T03:54:30;0.60;;;0.60;;
69410;SDS011;56604;48.652;9.194;2023-12-20T03:56:55;1.07;;;0.70;;
69410;SDS011;56604;48.652;9.194;2023-12-20T03:59:20;0.47;;;0.47;;
69410;SDS011;56604;48.652;9.194;2023-12-20T04:01:46;0.50;;;0.50;;
69410;SDS011;56604;48.652;9.194;2023-12-20T04:04:11;2.40;;;0.70;;
69410;SDS011;56604;48.652;9.194;2023-12-20T04:06:37;1.23;;;0.60;;
69410;SDS011;56604;48.652;9.194;2023-12-20T04:09:03;1.37;;;0.50;;
69410;SDS011;56604;48.652;9.194;2023-12-20T04:11:28;0.50;;;0.50;;
69410;SDS011;56604;48.652;9.194;2023-12-20T04:13:53;0.63;;;0.63;;
69410;SDS011;56604;48.652;9.194;2023-12-20T04:16:19;0.40;;;0.40;;
69410;SDS011;56604;48.652;9.194;2023-12-20T04:18:44;0.50;;;0.50;;
69410;SDS011;56604;48.652;9.194;2023-12-20T04:21:09;0.40;;;0.40;;
69410;SDS011;56604;48.652;9.194;2023-12-20T04:23:35;0.50;;;0.50;;
69410;SDS011;56604;48.652;9.194;2023-12-20T04:26:00;0.40;;;0.40;;
69410;SDS011;56604;48.652;9.194;2023-12-20T04:28:25;0.40;;;0.40;;
69410;SDS011;56604;48.652;9.194;2023-12-20T04:30:50;0.60;;;0.60;;
69410;SDS011;56604;48.652;9.194;2023-12-20T04:33:16;0.50;;;0.50;;
69410;SDS011;56604;48.652;9.194;2023-12-20T04:35:41;0.50;;;0.50;;
69410;SDS011;56604;48.652;9.194;2023-12-20T04:38:07;1.23;;;0.40;;
69410;SDS011;56604;48.652;9.194;2023-12-20T04:40:33;0.40;;;0.40;;
69410;SDS011;56604;48.652;9.194;2023-12-20T04:42:59;0.40;;;0.40;;
69410;SDS011;56604;48.652;9.194;2023-12-20T04:45:24;0.60;;;0.60;;
69410;SDS011;56604;48.652;9.194;2023-12-20T04:47:50;0.80;;;0.80;;
69410;SDS011;56604;48.652;9.194;2023-12-20T04:50:15;1.03;;;1.03;;
69410;SDS011;56604;48.652;9.194;2023-12-20T04:52:41;3.70;;;0.83;;
69410;SDS011;56604;48.652;9.194;2023-12-20T04:55:06;0.60;;;0.60;;
69410;SDS011;56604;48.652;9.194;2023-12-20T04:57:32;0.50;;;0.50;;
69410;SDS011;56604;48.652;9.194;2023-12-20T04:59:57;0.60;;;0.60;;
69410;SDS011;56604;48.652;9.194;2023-12-20T05:02:22;0.40;;;0.40;;
69410;SDS011;56604;48.652;9.194;2023-12-20T05:04:48;0.50;;;0.50;;
69410;SDS011;56604;48.652;9.194;2023-12-20T05:07:13;0.50;;;0.50;;
69410;SDS011;56604;48.652;9.194;2023-12-20T05:09:38;0.60;;;0.60;;
69410;SDS011;56604;48.652;9.194;2023-12-20T05:12:04;0.50;;;0.50;;
69410;SDS011;56604;48.652;9.194;2023-12-20T05:14:30;0.50;;;0.50;;
69410;SDS011;56604;48.652;9.194;2023-12-20T05:16:55;1.23;;;0.80;;
69410;SDS011;56604;48.652;9.194;2023-12-20T05:19:21;0.73;;;0.73;;
69410;SDS011;56604;48.652;9.194;2023-12-20T05:21:47;0.50;;;0.50;;
69410;SDS011;56604;48.652;9.194;2023-12-20T05:24:12;0.60;;;0.60;;
69410;SDS011;56604;48.652;9.194;2023-12-20T05:26:37;0.53;;;0.53;;
69410;SDS011;56604;48.652;9.194;2023-12-20T05:29:02;2.50;;;0.60;;
69410;SDS011;56604;48.652;9.194;2023-12-20T05:31:28;0.50;;;0.50;;
69410;SDS011;56604;48.652;9.194;2023-12-20T05:33:53;0.63;;;0.63;;
69410;SDS011;56604;48.652;9.194;2023-12-20T05:36:18;0.47;;;0.47;;
69410;SDS011;56604;48.652;9.194;2023-12-20T05:38:44;3.10;;;0.70;;
69410;SDS011;56604;48.652;9.194;2023-12-20T05:41:09;0.50;;;0.50;;
69410;SDS011;56604;48.652;9.194;2023-12-20T05:43:34;0.50;;;0.50;;
69410;SDS011;56604;48.652;9.194;2023-12-20T05:45:59;0.43;;;0.43;;
69410;SDS011;56604;48.652;9.194;2023-12-20T05:48:25;2.53;;;0.50;;
69410;SDS011;56604;48.652;9.194;2023-12-20T05:50:50;0.50;;;0.50;;
69410;SDS011;56604;48.652;9.194;2023-12-20T05:53:15;0.43;;;0.43;;
69410;SDS011;56604;48.652;9.194;2023-12-20T05:55:41;4.93;;;0.80;;
69410;SDS011;56604;48.652;9.194;2023-12-20T05:58:06;0.53;;;0.53;;
69410;SDS011;56604;48.652;9.194;2023-12-20T06:00:31;0.47;;;0.47;;
69410;SDS011;56604;48.652;9.194;2023-12-20T06:02:56;1.50;;;0.47;;
69410;SDS011;56604;48.652;9.194;2023-12-20T06:05:22;0.50;;;0.50;;
69410;SDS011;56604;48.652;9.194;2023-12-20T06:07:47;0.40;;;0.40;;
69410;SDS011;56604;48.652;9.194;2023-12-20T06:10:13;0.53;;;0.53;;
69410;SDS011;56604;48.652;9.194;2023-12-20T06:12:39;0.50;;;0.50;;
69410;SDS011;56604;48.652;9.194;2023-12-20T06:15:04;0.60;;;0.60;;
69410;SDS011;56604;48.652;9.194;2023-12-20T06:17:30;0.40;;;0.40;;
69410;SDS011;56604;48.652;9.194;2023-12-20T06:19:56;0.40;;;0.40;;
69410;SDS011;56604;48.652;9.194;2023-12-20T06:22:21;0.70;;;0.70;;
69410;SDS011;56604;48.652;9.194;2023-12-20T06:24:47;0.70;;;0.70;;
69410;SDS011;56604;48.652;9.194;2023-12-20T06:27:12;0.60;;;0.60;;
69410;SDS011;56604;48.652;9.194;2023-12-20T06:29:38;0.50;;;0.50;;
69410;SDS011;56604;48.652;9.194;2023-12-20T06:32:03;0.50;;;0.50;;
69410;SDS011;56604;48.652;9.194;2023-12-20T06:34:29;0.80;;;0.80;;
69410;SDS011;56604;48.652;9.194;2023-12-20T06:36:54;1.27;;;0.80;;
69410;SDS011;56604;48.652;9.194;2023-12-20T06:39:19;0.67;;;0.67;;
69410;SDS011;56604;48.652;9.194;2023-12-20T06:41:44;0.53;;;0.53;;
69410;SDS011;56604;48.652;9.194;2023-12-20T06:44:10;0.60;;;0.60;;
69410;SDS011;56604;48.652;9.194;2023-12-20T06:46:35;0.53;;;0.53;;
69410;SDS011;56604;48.652;9.194;2023-12-20T06:49:00;0.50;;;0.50;;
69410;SDS011;56604;48.652;9.194;2023-12-20T06:51:26;0.50;;;0.50;;
69410;SDS011;56604;48.652;9.194;2023-12-20T06:53:54;0.60;;;0.60;;
69410;SDS011;56604;48.652;9.194;2023-12-20T06:56:19;0.80;;;0.80;;
69410;SDS011;56604;48.652;9.194;2023-12-20T06:58:44;0.77;;;0.77;;
69410;SDS011;56604;48.652;9.194;2023-12-20T07:01:11;0.90;;;0.90;;
69410;SDS011;56604;48.652;9.194;2023-12-20T07:03:39;0.90;;;0.90;;
69410;SDS011;56604;48.652;9.194;2023-12-20T07:06:07;1.27;;;0.97;;
69410;SDS011;56604;48.652;9.194;2023-12-20T07:08:33;0.67;;;0.67;;
69410;SDS011;56604;48.652;9.194;2023-12-20T07:10:58;0.80;;;0.80;;
69410;SDS011;56604;48.652;9.194;2023-12-20T07:13:24;0.83;;;0.83;;
69410;SDS011;56604;48.652;9.194;2023-12-20T07:15:49;0.70;;;0.70;;
69410;SDS011;56604;48.652;9.194;2023-12-20T07:18:15;0.60;;;0.60;;
69410;SDS011;56604;48.652;9.194;2023-12-20T07:20:40;0.80;;;0.80;;
69410;SDS011;56604;48.652;9.194;2023-12-20T07:23:05;0.60;;;0.60;;
69410;SDS011;56604;48.652;9.194;2023-12-20T07:25:30;0.77;;;0.77;;
69410;SDS011;56604;48.652;9.194;2023-12-20T07:27:59;0.70;;;0.70;;
69410;SDS011;56604;48.652;9.194;2023-12-20T07:30:24;0.80;;;0.80;;
69410;SDS011;56604;48.652;9.194;2023-12-20T07:32:49;0.80;;;0.80;;
69410;SDS011;56604;48.652;9.194;2023-12-20T07:35:15;0.97;;;0.80;;
69410;SDS011;56604;48.652;9.194;2023-12-20T07:37:41;0.77;;;0.77;;
69410;SDS011;56604;48.652;9.194;2023-12-20T07:40:06;0.90;;;0.90;;
69410;SDS011;56604;48.652;9.194;2023-12-20T07:42:32;1.33;;;0.83;;
69410;SDS011;56604;48.652;9.194;2023-12-20T07:44:58;0.80;;;0.80;;
69410;SDS011;56604;48.652;9.194;2023-12-20T07:47:23;3.20;;;1.07;;
69410;SDS011;56604;48.652;9.194;2023-12-20T07:49:50;0.70;;;0.70;;
69410;SDS011;56604;48.652;9.194;2023-12-20T07:52:16;0.63;;;0.63;;
69410;SDS011;56604;48.652;9.194;2023-12-20T07:54:45;0.83;;;0.83;;
69410;SDS011;56604;48.652;9.194;2023-12-20T07:57:11;3.13;;;1.10;;
69410;SDS011;56604;48.652;9.194;2023-12-20T07:59:36;0.90;;;0.90;;
69410;SDS011;56604;48.652;9.194;2023-12-20T08:02:02;0.90;;;0.90;;
69410;SDS011;56604;48.652;9.194;2023-12-20T08:04:27;1.00;;;1.00;;
69410;SDS011;56604;48.652;9.194;2023-12-20T08:06:53;1.07;;;1.07;;
69410;SDS011;56604;48.652;9.194;2023-12-20T08:09:19;1.53;;;1.43;;
69410;SDS011;56604;48.652;9.194;2023-12-20T08:11:47;0.90;;;0.90;;
69410;SDS011;56604;48.652;9.194;2023-12-20T08:14:13;1.03;;;0.90;;
69410;SDS011;56604;48.652;9.194;2023-12-20T08:16:39;1.20;;;1.20;;
69410;SDS011;56604;48.652;9.194;2023-12-20T08:19:05;1.20;;;1.20;;
69410;SDS011;56604;48.652;9.194;2023-12-20T08:21:30;1.20;;;1.20;;
69410;SDS011;56604;48.652;9.194;2023-12-20T08:23:55;1.27;;;1.27;;
69410;SDS011;56604;48.652;9.194;2023-12-20T08:26:21;1.00;;;1.00;;
69410;SDS011;56604;48.652;9.194;2023-12-20T08:28:50;1.30;;;1.30;;
69410;SDS011;56604;48.652;9.194;2023-12-20T08:31:16;1.47;;;1.47;;
69410;SDS011;56604;48.652;9.194;2023-12-20T08:33:46;1.83;;;1.83;;
69410;SDS011;56604;48.652;9.194;2023-12-20T08:36:13;1.23;;;1.23;;
69410;SDS011;56604;48.652;9.194;2023-12-20T08:38:39;1.43;;;1.43;;
69410;SDS011;56604;48.652;9.194;2023-12-20T08:41:04;1.30;;;1.30;;
69410;SDS011;56604;48.652;9.194;2023-12-20T08:43:31;10.47;;;7.10;;
69410;SDS011;56604;48.652;9.194;2023-12-20T08:45:57;6.73;;;5.33;;
69410;SDS011;56604;48.652;9.194;2023-12-20T08:48:22;1.90;;;1.80;;
69410;SDS011;56604;48.652;9.194;2023-12-20T08:50:48;10.60;;;7.07;;
69410;SDS011;56604;48.652;9.194;2023-12-20T08:53:15;4.10;;;3.80;;
69410;SDS011;56604;48.652;9.194;2023-12-20T08:55:41;4.47;;;4.17;;
69410;SDS011;56604;48.652;9.194;2023-12-20T08:58:07;3.63;;;3.33;;
69410;SDS011;56604;48.652;9.194;2023-12-20T09:00:33;2.83;;;2.63;;
69410;SDS011;56604;48.652;9.194;2023-12-20T09:02:59;5.00;;;4.53;;
69410;SDS011;56604;48.652;9.194;2023-12-20T09:05:24;3.13;;;1.97;;
69410;SDS011;56604;48.652;9.194;2023-12-20T09:07:50;2.30;;;2.20;;
69410;SDS011;56604;48.652;9.194;2023-12-20T09:10:15;1.83;;;1.83;;
69410;SDS011;56604;48.652;9.194;2023-12-20T09:12:41;2.43;;;2.17;;
69410;SDS011;56604;48.652;9.194;2023-12-20T09:15:07;2.60;;;2.47;;
69410;SDS011;56604;48.652;9.194;2023-12-20T09:17:33;2.50;;;2.40;;
69410;SDS011;56604;48.652;9.194;2023-12-20T09:19:58;1.77;;;1.70;;
69410;SDS011;56604;48.652;9.194;2023-12-20T09:22:25;1.70;;;1.60;;
69410;SDS011;56604;48.652;9.194;2023-12-20T09:24:50;2.10;;;1.60;;
69410;SDS011;56604;48.652;9.194;2023-12-20T09:27:16;2.33;;;2.23;;
69410;SDS011;56604;48.652;9.194;2023-12-20T09:29:41;2.10;;;1.60;;
69410;SDS011;56604;48.652;9.194;2023-12-20T09:32:06;1.40;;;1.40;;
69410;SDS011;56604;48.652;9.194;2023-12-20T09:34:31;1.90;;;1.77;;
69410;SDS011;56604;48.652;9.194;2023-12-20T09:36:57;4.57;;;2.77;;
69410;SDS011;56604;48.652;9.194;2023-12-20T09:39:22;6.13;;;1.60;;
69410;SDS011;56604;48.652;9.194;2023-12-20T09:42:01;4.63;;;1.73;;
69410;SDS011;56604;48.652;9.194;2023-12-20T09:44:27;2.83;;;1.57;;
69410;SDS011;56604;48.652;9.194;2023-12-20T09:46:53;6.87;;;2.00;;
69410;SDS011;56604;48.652;9.194;2023-12-20T09:49:20;7.20;;;3.93;;
69410;SDS011;56604;48.652;9.194;2023-12-20T09:51:46;6.40;;;2.50;;
69410;SDS011;56604;48.652;9.194;2023-12-20T09:54:15;1.90;;;1.70;;
69410;SDS011;56604;48.652;9.194;2023-12-20T09:56:41;4.07;;;3.50;;
69410;SDS011;56604;48.652;9.194;2023-12-20T09:59:07;6.80;;;4.37;;
69410;SDS011;56604;48.652;9.194;2023-12-20T10:01:33;2.97;;;2.33;;
69410;SDS011;56604;48.652;9.194;2023-12-20T10:03:59;7.53;;;4.20;;
69410;SDS011;56604;48.652;9.194;2023-12-20T10:06:25;3.40;;;1.90;;
69410;SDS011;56604;48.652;9.194;2023-12-20T10:08:51;1.43;;;1.30;;
69410;SDS011;56604;48.652;9.194;2023-12-20T10:11:18;4.80;;;2.60;;
69410;SDS011;56604;48.652;9.194;2023-12-20T10:13:44;6.00;;;1.60;;
69410;SDS011;56604;48.652;9.194;2023-12-20T10:16:12;8.57;;;1.93;;
69410;SDS011;56604;48.652;9.194;2023-12-20T10:18:38;3.53;;;1.30;;
69410;SDS011;56604;48.652;9.194;2023-12-20T10:21:04;3.13;;;1.50;;
69410;SDS011;56604;48.652;9.194;2023-12-20T10:23:29;5.60;;;2.00;;
69410;SDS011;56604;48.652;9.194;2023-12-20T10:25:59;2.07;;;1.50;;
69410;SDS011;56604;48.652;9.194;2023-12-20T10:28:24;5.37;;;1.80;;
69410;SDS011;56604;48.652;9.194;2023-12-20T10:30:53;3.33;;;1.83;;
69410;SDS011;56604;48.652;9.194;2023-12-20T10:33:24;3.83;;;1.20;;
69410;SDS011;56604;48.652;9.194;2023-12-20T10:35:51;2.53;;;1.77;;
69410;SDS011;56604;48.652;9.194;2023-12-20T10:38:17;10.40;;;2.23;;
69410;SDS011;56604;48.652;9.194;2023-12-20T10:40:43;4.03;;;1.40;;
69410;SDS011;56604;48.652;9.194;2023-12-20T10:43:10;4.00;;;1.20;;
69410;SDS011;56604;48.652;9.194;2023-12-20T10:45:36;2.73;;;1.23;;
69410;SDS011;56604;48.652;9.194;2023-12-20T10:48:02;1.97;;;1.57;;
69410;SDS011;56604;48.652;9.194;2023-12-20T10:50:29;1.10;;;1.00;;
69410;SDS011;56604;48.652;9.194;2023-12-20T10:52:56;5.60;;;1.00;;
69410;SDS011;56604;48.652;9.194;2023-12-20T10:55:22;9.10;;;1.33;;
69410;SDS011;56604;48.652;9.194;2023-12-20T10:57:49;4.33;;;1.40;;
69410;SDS011;56604;48.652;9.194;2023-12-20T11:00:20;2.70;;;1.37;;
69410;SDS011;56604;48.652;9.194;2023-12-20T11:02:48;2.97;;;1.00;;
69410;SDS011;56604;48.652;9.194;2023-12-20T11:07:54;1.80;;;1.20;;
69410;SDS011;56604;48.652;9.194;2023-12-20T11:10:31;6.50;;;2.10;;
69410;SDS011;56604;48.652;9.194;2023-12-20T11:15:40;2.60;;;1.17;;
69410;SDS011;56604;48.652;9.194;2023-12-20T11:18:05;3.40;;;1.40;;
69410;SDS011;56604;48.652;9.194;2023-12-20T11:20:37;2.03;;;1.20;;
69410;SDS011;56604;48.652;9.194;2023-12-20T11:23:04;5.50;;;1.90;;
69410;SDS011;56604;48.652;9.194;2023-12-20T11:25:35;2.83;;;1.97;;
69410;SDS011;56604;48.652;9.194;2023-12-20T11:28:11;2.03;;;1.30;;
69410;SDS011;56604;48.652;9.194;2023-12-20T11:30:47;2.20;;;1.43;;
69410;SDS011;56604;48.652;9.194;2023-12-20T11:33:15;5.40;;;1.20;;
69410;SDS011;56604;48.652;9.194;2023-12-20T11:35:41;2.73;;;1.60;;
69410;SDS011;56604;48.652;9.194;2023-12-20T11:38:07;3.30;;;1.60;;
69410;SDS011;56604;48.652;9.194;2023-12-20T11:40:34;4.73;;;1.20;;
69410;SDS011;56604;48.652;9.194;2023-12-20T11:43:00;3.53;;;1.53;;
69410;SDS011;56604;48.652;9.194;2023-12-20T11:45:25;2.50;;;1.33;;
69410;SDS011;56604;48.652;9.194;2023-12-20T11:47:52;4.10;;;1.30;;
69410;SDS011;56604;48.652;9.194;2023-12-20T11:50:21;7.50;;;1.67;;
69410;SDS011;56604;48.652;9.194;2023-12-20T11:52:48;3.77;;;1.23;;
69410;SDS011;56604;48.652;9.194;2023-12-20T11:55:14;5.97;;;1.60;;
69410;SDS011;56604;48.652;9.194;2023-12-20T11:57:39;2.37;;;1.27;;
69410;SDS011;56604;48.652;9.194;2023-12-20T12:00:05;5.70;;;1.40;;
69410;SDS011;56604;48.652;9.194;2023-12-20T12:02:31;7.70;;;2.30;;
69410;SDS011;56604;48.652;9.194;2023-12-20T12:04:57;8.63;;;1.63;;
69410;SDS011;56604;48.652;9.194;2023-12-20T12:07:24;4.40;;;1.30;;
69410;SDS011;56604;48.652;9.194;2023-12-20T12:09:49;2.77;;;1.37;;
69410;SDS011;56604;48.652;9.194;2023-12-20T12:12:15;3.70;;;1.60;;
69410;SDS011;56604;48.652;9.194;2023-12-20T12:14:42;4.23;;;1.73;;
69410;SDS011;56604;48.652;9.194;2023-12-20T12:17:10;1.80;;;1.10;;
69410;SDS011;56604;48.652;9.194;2023-12-20T12:19:37;4.00;;;1.40;;
69410;SDS011;56604;48.652;9.194;2023-12-20T12:22:13;1.40;;;1.20;;
69410;SDS011;56604;48.652;9.194;2023-12-20T12:24:42;3.13;;;1.27;;
69410;SDS011;56604;48.652;9.194;2023-12-20T12:27:09;3.23;;;1.40;;
69410;SDS011;56604;48.652;9.194;2023-12-20T12:29:35;4.63;;;1.50;;
69410;SDS011;56604;48.652;9.194;2023-12-20T12:32:02;2.73;;;1.60;;
69410;SDS011;56604;48.652;9.194;2023-12-20T12:34:36;1.50;;;1.30;;
69410;SDS011;56604;48.652;9.194;2023-12-20T12:37:02;1.20;;;1.10;;
69410;SDS011;56604;48.652;9.194;2023-12-20T12:39:29;3.83;;;1.60;;
69410;SDS011;56604;48.652;9.194;2023-12-20T12:41:54;2.33;;;1.60;;
69410;SDS011;56604;48.652;9.194;2023-12-20T12:44:20;5.20;;;3.17;;
69410;SDS011;56604;48.652;9.194;2023-12-20T12:46:47;7.57;;;1.63;;
69410;SDS011;56604;48.652;9.194;2023-12-20T12:49:16;6.70;;;2.40;;
69410;SDS011;56604;48.652;9.194;2023-12-20T12:51:41;6.90;;;3.33;;
69410;SDS011;56604;48.652;9.194;2023-12-20T12:54:07;10.43;;;1.90;;
69410;SDS011;56604;48.652;9.194;2023-12-20T12:56:33;5.30;;;1.63;;
69410;SDS011;56604;48.652;9.194;2023-12-20T12:58:59;3.23;;;1.87;;
69410;SDS011;56604;48.652;9.194;2023-12-20T13:01:25;4.30;;;1.60;;
69410;SDS011;56604;48.652;9.194;2023-12-20T13:03:50;7.93;;;1.80;;
69410;SDS011;56604;48.652;9.194;2023-12-20T13:06:15;1.60;;;1.50;;
69410;SDS011;56604;48.652;9.194;2023-12-20T13:08:41;2.67;;;1.53;;
69410;SDS011;56604;48.652;9.194;2023-12-20T13:11:06;1.83;;;1.70;;
69410;SDS011;56604;48.652;9.194;2023-12-20T13:13:32;4.47;;;1.37;;
69410;SDS011;56604;48.652;9.194;2023-12-20T13:15:57;2.30;;;1.47;;
69410;SDS011;56604;48.652;9.194;2023-12-20T13:18:23;1.90;;;1.07;;
69410;SDS011;56604;48.652;9.194;2023-12-20T13:20:48;7.17;;;1.50;;
69410;SDS011;56604;48.652;9.194;2023-12-20T13:23:14;5.87;;;2.17;;
69410;SDS011;56604;48.652;9.194;2023-12-20T13:25:40;3.50;;;2.20;;
69410;SDS011;56604;48.652;9.194;2023-12-20T13:28:06;2.40;;;1.50;;
69410;SDS011;56604;48.652;9.194;2023-12-20T13:30:32;3.97;;;1.70;;
69410;SDS011;56604;48.652;9.194;2023-12-20T13:32:57;4.53;;;1.77;;
69410;SDS011;56604;48.652;9.194;2023-12-20T13:35:22;3.93;;;1.40;;
69410;SDS011;56604;48.652;9.194;2023-12-20T13:37:47;5.40;;;1.37;;
69410;SDS011;56604;48.652;9.194;2023-12-20T13:40:13;3.10;;;1.73;;
69410;SDS011;56604;48.652;9.194;2023-12-20T13:42:39;8.50;;;1.60;;
69410;SDS011;56604;48.652;9.194;2023-12-20T13:45:05;2.10;;;1.90;;
69410;SDS011;56604;48.652;9.194;2023-12-20T13:47:31;5.00;;;1.27;;
69410;SDS011;56604;48.652;9.194;2023-12-20T13:49:57;2.43;;;1.73;;
69410;SDS011;56604;48.652;9.194;2023-12-20T13:52:22;2.10;;;1.60;;
69410;SDS011;56604;48.652;9.194;2023-12-20T13:54:48;3.53;;;1.60;;
69410;SDS011;56604;48.652;9.194;2023-12-20T13:57:13;13.43;;;1.93;;
69410;SDS011;56604;48.652;9.194;2023-12-20T13:59:38;2.00;;;1.30;;
69410;SDS011;56604;48.652;9.194;2023-12-20T14:02:04;1.67;;;1.30;;
69410;SDS011;56604;48.652;9.194;2023-12-20T14:04:29;3.10;;;1.33;;
69410;SDS011;56604;48.652;9.194;2023-12-20T14:06:56;5.60;;;1.50;;
69410;SDS011;56604;48.652;9.194;2023-12-20T14:09:21;8.30;;;1.00;;
69410;SDS011;56604;48.652;9.194;2023-12-20T14:11:46;3.07;;;1.23;;
69410;SDS011;56604;48.652;9.194;2023-12-20T14:14:12;10.60;;;1.70;;
69410;SDS011;56604;48.652;9.194;2023-12-20T14:16:37;6.57;;;1.50;;
69410;SDS011;56604;48.652;9.194;2023-12-20T14:19:03;1.83;;;1.07;;
69410;SDS011;56604;48.652;9.194;2023-12-20T14:21:28;3.23;;;1.67;;
69410;SDS011;56604;48.652;9.194;2023-12-20T14:23:54;3.13;;;1.30;;
69410;SDS011;56604;48.652;9.194;2023-12-20T14:26:20;5.93;;;1.97;;
69410;SDS011;56604;48.652;9.194;2023-12-20T14:28:45;2.10;;;1.53;;
69410;SDS011;56604;48.652;9.194;2023-12-20T14:31:10;3.33;;;1.10;;
69410;SDS011;56604;48.652;9.194;2023-12-20T14:33:36;1.60;;;1.50;;
69410;SDS011;56604;48.652;9.194;2023-12-20T14:36:03;3.97;;;1.30;;
69410;SDS011;56604;48.652;9.194;2023-12-20T14:38:30;6.07;;;1.30;;
69410;SDS011;56604;48.652;9.194;2023-12-20T14:40:56;7.57;;;2.57;;
69410;SDS011;56604;48.652;9.194;2023-12-20T14:43:22;3.70;;;1.60;;
69410;SDS011;56604;48.652;9.194;2023-12-20T14:45:47;5.80;;;1.57;;